RJNA(METAR)
02/28 05:00
METAR RJNA 272000Z VRB02KT 9999 FEW060 02/M03 Q1024 RMK 2SC060 A3025=
戻る
トップページへ戻る
IMOC Co,.Ltd.